Погода Вилья-Аумадана 2 недели

Чиуауа, Мексика

24 июля-06 августа
  • 24июля
    Сегодня
    +22°
    +35°
    Ясно и безоблачно
    ВремяПогодаТемператураВлажностьДавлениеВетер, м/сВероятность осадков
    00:00Ясно и безоблачно+25°C47 %667 мм4.3 м/с2 %
    03:00Ясно и безоблачно+22°C60 %667 мм3.2 м/с2 %
    06:00Ясно и безоблачно+20°C74 %667 мм3.2 м/с2 %
    09:00Ясно и безоблачно+25°C56 %669 мм1.8 м/с2 %
    12:00Ясно и безоблачно+30°C31 %670 мм2.1 м/с2 %
    15:00Ясно и безоблачно+33°C22 %669 мм2.6 м/с2 %
    18:00Ясно и безоблачно+34°C18 %668 мм2.9 м/с2 %
    21:00Ясно и безоблачно+29°C29 %667 мм1.1 м/с2 %
  • 25июля
    Четверг
    +24°
    +36°
    Ясно и безоблачно
    ВремяПогодаТемператураВлажностьДавлениеВетер, м/сВероятность осадков
    00:00Ясно и безоблачно+27°C33 %668 мм0.6 м/с2 %
    03:00Ясно и безоблачно+24°C37 %667 мм3.9 м/с2 %
    06:00Ясно и безоблачно+23°C49 %667 мм4.2 м/с2 %
    09:00Ясно и безоблачно+27°C36 %669 мм2.9 м/с2 %
    12:00Ясно и безоблачно+33°C19 %669 мм1.9 м/с2 %
    15:00Ясно и безоблачно+35°C16 %668 мм4.4 м/с2 %
    18:00Практически безоблачно+35°C17 %667 мм4.0 м/с2 %
    21:00Ясно и безоблачно+32°C18 %666 мм3.2 м/с2 %
  • 26июля
    Пятница
    +24°
    +37°
    Ясно и безоблачно
    ВремяПогодаТемператураВлажностьДавлениеВетер, м/сВероятность осадков
    00:00Ясно и безоблачно+28°C23 %666 мм4.0 м/с2 %
    03:00Ясно и безоблачно+26°C26 %665 мм6.1 м/с2 %
    06:00Ясно и безоблачно+25°C34 %665 мм4.7 м/с2 %
    09:00Ясно и безоблачно+28°C27 %666 мм4.2 м/с2 %
    12:00Ясно и безоблачно+33°C16 %666 мм2.5 м/с2 %
    15:00Ясно и безоблачно+36°C14 %664 мм4.0 м/с2 %
    18:00Ясно и безоблачно+36°C14 %663 мм2.7 м/с2 %
    21:00Практически безоблачно+33°C16 %663 мм4.7 м/с2 %
  • 27июля
    Суббота
    +23°
    +35°
    Практически безоблачно
    ВремяПогодаТемператураВлажностьДавлениеВетер, м/сВероятность осадков
    00:00Облачно с прояснениями+31°C19 %663 мм4.6 м/с3 %
    03:00Ясно и безоблачно+27°C26 %662 мм3.0 м/с2 %
    06:00Ясно и безоблачно+25°C34 %662 мм2.8 м/с2 %
    09:00Практически безоблачно+28°C32 %663 мм2.4 м/с2 %
    12:00Практически безоблачно+32°C23 %664 мм2.7 м/с2 %
    15:00Практически безоблачно+34°C22 %663 мм3.6 м/с5 %
    18:00Ясно и безоблачно+35°C20 %662 мм5.4 м/с8 %
    21:00Практически безоблачно+31°C28 %663 мм5.0 м/с16 %
  • 28июля
    Воскресенье
    +24°
    +37°
    Небольшая облачность
    ВремяПогодаТемператураВлажностьДавлениеВетер, м/сВероятность осадков
    00:00Ясно и безоблачно+27°C41 %663 мм4.8 м/с9 %
    03:00Ясно и безоблачно+26°C47 %662 мм3.1 м/с2 %
    06:00Ясно и безоблачно+24°C53 %662 мм2.8 м/с2 %
    09:00Ясно и безоблачно+28°C39 %664 мм3.0 м/с2 %
    12:00Ясно и безоблачно+33°C25 %664 мм2.2 м/с2 %
    15:00Небольшая облачность+36°C20 %663 мм2.2 м/с3 %
    18:00Облачно с прояснениями+37°C19 %663 мм5.6 м/с8 %
    21:00Практически безоблачно+33°C23 %663 мм1.8 м/с21 %
Мы используем cookies
Соглашаюсь